createdAt,value
2018-05-21T00:02:26.498Z,15.07
2018-05-21T00:04:54.046Z,15.03
2018-05-21T00:07:21.579Z,15.00
2018-05-21T00:09:49.621Z,14.95
2018-05-21T00:12:17.187Z,14.85
2018-05-21T00:14:44.705Z,14.91
2018-05-21T00:17:12.193Z,14.81
2018-05-21T00:19:39.688Z,14.83
2018-05-21T00:22:07.197Z,14.87
2018-05-21T00:24:47.143Z,15.11
2018-05-21T00:27:14.722Z,15.06
2018-05-21T00:29:42.251Z,14.96
2018-05-21T00:32:10.687Z,14.95
2018-05-21T00:34:38.507Z,15.02
2018-05-21T00:37:06.635Z,14.96
2018-05-21T00:39:34.445Z,14.92
2018-05-21T00:42:02.008Z,14.85
2018-05-21T00:44:29.510Z,14.85
2018-05-21T00:46:57.019Z,14.91
2018-05-21T00:49:24.519Z,14.95
2018-05-21T00:51:52.039Z,14.92
2018-05-21T00:54:19.542Z,14.85
2018-05-21T00:56:47.067Z,14.88
2018-05-21T00:59:14.551Z,14.83
2018-05-21T01:01:42.098Z,14.74
2018-05-21T01:04:09.610Z,14.72
2018-05-21T01:06:37.123Z,14.70
2018-05-21T01:09:05.493Z,14.61
2018-05-21T01:11:32.983Z,14.58
2018-05-21T01:14:00.484Z,14.60
2018-05-21T01:16:27.977Z,14.57
2018-05-21T01:18:55.530Z,14.58
2018-05-21T01:21:23.013Z,14.65
2018-05-21T01:23:50.496Z,14.76
2018-05-21T01:26:18.019Z,14.76
2018-05-21T01:28:45.518Z,14.73
2018-05-21T01:31:13.018Z,14.70
2018-05-21T01:33:40.528Z,14.56
2018-05-21T01:36:08.027Z,14.52
2018-05-21T01:38:35.559Z,14.42
2018-05-21T01:41:03.183Z,14.54
2018-05-21T01:43:30.649Z,14.53
2018-05-21T01:45:58.178Z,14.48
2018-05-21T01:48:25.721Z,14.41
2018-05-21T01:50:53.211Z,14.36
2018-05-21T01:53:20.726Z,14.29
2018-05-21T01:55:48.237Z,14.31
2018-05-21T01:58:15.715Z,14.26
2018-05-21T02:00:43.254Z,14.23
2018-05-21T02:03:10.737Z,14.19
2018-05-21T02:05:38.225Z,14.16
2018-05-21T02:08:05.756Z,14.23
2018-05-21T02:10:33.236Z,14.25
2018-05-21T02:13:00.798Z,14.20
2018-05-21T02:15:28.303Z,14.12
2018-05-21T02:17:55.795Z,14.02
2018-05-21T02:20:23.299Z,14.04
2018-05-21T02:22:50.861Z,14.19
2018-05-21T02:25:18.363Z,14.19
2018-05-21T02:27:45.856Z,14.13
2018-05-21T02:30:13.375Z,14.14
2018-05-21T02:32:40.894Z,14.03
2018-05-21T02:35:08.411Z,14.14
2018-05-21T02:37:35.928Z,14.07
2018-05-21T02:40:03.415Z,14.11
2018-05-21T02:42:30.938Z,14.10
2018-05-21T02:44:58.425Z,14.09
2018-05-21T02:47:25.916Z,14.01
2018-05-21T02:49:53.403Z,13.92
2018-05-21T02:52:20.915Z,13.87
2018-05-21T02:54:48.391Z,13.87
2018-05-21T02:57:15.875Z,13.85
2018-05-21T02:59:43.386Z,13.83
2018-05-21T03:02:10.883Z,13.74
2018-05-21T03:04:38.378Z,13.68
2018-05-21T03:07:05.880Z,13.62
2018-05-21T03:09:33.358Z,13.59
2018-05-21T03:12:00.872Z,13.63
2018-05-21T03:14:28.336Z,13.62
2018-05-21T03:16:55.856Z,13.57
2018-05-21T03:19:23.360Z,13.52
2018-05-21T03:21:50.848Z,13.52
2018-05-21T03:24:18.355Z,13.51
2018-05-21T03:26:45.867Z,13.51
2018-05-21T03:29:13.450Z,13.54
2018-05-21T03:31:41.004Z,13.61
2018-05-21T03:34:08.491Z,13.81
2018-05-21T03:36:35.998Z,13.98
2018-05-21T03:39:03.540Z,14.11
2018-05-21T03:41:31.075Z,14.09
2018-05-21T03:43:58.534Z,14.00
2018-05-21T03:46:26.010Z,14.00
2018-05-21T03:48:53.561Z,14.02
2018-05-21T03:51:21.075Z,14.10
2018-05-21T03:53:48.575Z,14.11
2018-05-21T03:56:16.126Z,14.16
2018-05-21T03:58:55.563Z,14.21
2018-05-21T04:01:34.905Z,14.28
2018-05-21T04:04:02.402Z,14.30
2018-05-21T04:06:30.792Z,14.36
2018-05-21T04:08:58.326Z,14.37
2018-05-21T04:11:25.823Z,14.36
2018-05-21T04:13:53.316Z,14.36
2018-05-21T04:16:20.801Z,14.36
2018-05-21T04:18:48.306Z,14.30
2018-05-21T04:21:15.805Z,14.27
2018-05-21T04:23:43.309Z,14.32
2018-05-21T04:26:10.818Z,14.36
2018-05-21T04:28:38.311Z,14.40
2018-05-21T04:31:05.818Z,14.43
2018-05-21T04:33:33.316Z,14.48
2018-05-21T04:36:00.780Z,14.50
2018-05-21T04:38:28.280Z,14.53
2018-05-21T04:40:55.762Z,14.76
2018-05-21T04:43:23.229Z,14.83
2018-05-21T04:45:50.718Z,14.95
2018-05-21T04:48:18.205Z,15.00
2018-05-21T04:50:45.722Z,15.06
2018-05-21T04:53:13.212Z,15.11
2018-05-21T04:55:40.771Z,15.20
2018-05-21T04:58:08.221Z,15.30
2018-05-21T05:00:35.742Z,15.39
2018-05-21T05:03:03.302Z,15.50
2018-05-21T05:05:30.788Z,15.57
2018-05-21T05:07:58.255Z,15.80
2018-05-21T05:10:25.722Z,15.88
2018-05-21T05:12:53.206Z,15.99
2018-05-21T05:15:20.663Z,16.07
2018-05-21T05:17:48.188Z,16.20
2018-05-21T05:20:15.657Z,16.38
2018-05-21T05:22:43.154Z,16.50
2018-05-21T05:25:10.693Z,16.71
2018-05-21T05:27:38.154Z,16.92
2018-05-21T05:30:05.671Z,17.09
2018-05-21T05:32:33.152Z,17.27
2018-05-21T05:35:00.691Z,17.51
2018-05-21T05:37:28.162Z,17.74
2018-05-21T05:39:55.653Z,17.95
2018-05-21T05:42:23.115Z,18.09
2018-05-21T05:44:50.587Z,18.29
2018-05-21T05:47:18.066Z,18.41
2018-05-21T05:49:45.573Z,18.58
2018-05-21T05:52:13.235Z,18.74
2018-05-21T05:54:40.711Z,18.77
2018-05-21T05:57:08.192Z,18.80
2018-05-21T05:59:35.684Z,18.78
2018-05-21T06:02:03.166Z,18.79
2018-05-21T06:04:30.625Z,18.76
2018-05-21T06:06:58.338Z,18.80
2018-05-21T06:09:25.972Z,18.79
2018-05-21T06:11:53.459Z,18.88
2018-05-21T06:14:20.934Z,18.93
2018-05-21T06:16:48.425Z,19.02
2018-05-21T06:19:15.890Z,19.07
2018-05-21T06:21:43.354Z,19.23
2018-05-21T06:24:10.831Z,19.32
2018-05-21T06:26:38.283Z,19.49
2018-05-21T06:29:05.764Z,19.61
2018-05-21T06:31:33.239Z,19.80
2018-05-21T06:34:01.005Z,20.06
2018-05-21T06:36:28.443Z,20.11
2018-05-21T06:38:55.926Z,20.28
2018-05-21T06:41:23.428Z,20.38
2018-05-21T06:43:50.907Z,20.65
2018-05-21T06:48:57.016Z,20.81
2018-05-21T06:51:24.597Z,20.92
2018-05-21T06:53:52.065Z,21.02
2018-05-21T06:56:19.611Z,20.90
2018-05-21T06:58:47.085Z,20.76
2018-05-21T07:01:14.599Z,20.75
2018-05-21T07:03:42.095Z,20.73
2018-05-21T07:06:09.550Z,20.99
2018-05-21T07:08:37.039Z,21.01
2018-05-21T07:11:04.500Z,21.06
2018-05-21T07:13:31.959Z,20.86
2018-05-21T07:15:59.454Z,20.82
2018-05-21T07:18:26.935Z,20.92
2018-05-21T07:20:54.446Z,20.93
2018-05-21T07:23:21.951Z,21.11
2018-05-21T07:25:49.464Z,21.14
2018-05-21T07:28:16.935Z,21.11
2018-05-21T07:30:44.705Z,21.04
2018-05-21T07:33:12.174Z,21.04
2018-05-21T07:35:39.623Z,21.11
2018-05-21T07:38:07.482Z,21.03
2018-05-21T07:40:35.618Z,21.00
2018-05-21T07:43:03.093Z,21.06
2018-05-21T07:45:30.647Z,21.13
2018-05-21T07:47:58.155Z,21.04
2018-05-21T07:50:25.623Z,20.88
2018-05-21T07:52:53.139Z,21.05
2018-05-21T07:55:20.661Z,20.95
2018-05-21T07:57:48.177Z,20.91
2018-05-21T08:00:15.661Z,21.08
2018-05-21T08:02:43.129Z,21.12
2018-05-21T08:05:10.664Z,21.19
2018-05-21T08:07:38.065Z,21.23
2018-05-21T08:10:05.550Z,21.35
2018-05-21T08:12:33.012Z,21.45
2018-05-21T08:15:00.491Z,21.66
2018-05-21T08:17:27.960Z,21.83
2018-05-21T08:19:55.441Z,21.84
2018-05-21T08:22:23.782Z,21.77
2018-05-21T08:24:51.254Z,21.90
2018-05-21T08:27:18.795Z,21.99
2018-05-21T08:29:46.311Z,22.04
2018-05-21T08:32:13.748Z,21.99
2018-05-21T08:34:41.200Z,21.97
2018-05-21T08:37:08.801Z,22.00
2018-05-21T08:39:36.274Z,22.14
2018-05-21T08:42:03.753Z,22.29
2018-05-21T08:44:31.222Z,22.14
2018-05-21T08:46:58.709Z,22.28
2018-05-21T08:49:26.165Z,22.43
2018-05-21T08:51:53.642Z,22.55
2018-05-21T08:54:21.137Z,22.47
2018-05-21T08:56:48.618Z,22.52
2018-05-21T08:59:16.091Z,22.58
2018-05-21T09:01:43.561Z,22.66
2018-05-21T09:04:11.039Z,22.52
2018-05-21T09:06:38.545Z,22.49
2018-05-21T09:09:06.058Z,22.52
2018-05-21T09:11:33.538Z,22.35
2018-05-21T09:14:01.048Z,22.48
2018-05-21T09:16:28.522Z,22.43
2018-05-21T09:18:56.010Z,22.54
2018-05-21T09:21:23.471Z,22.63
2018-05-21T09:23:51.012Z,22.79
2018-05-21T09:26:18.479Z,22.86
2018-05-21T09:28:45.952Z,22.95
2018-05-21T09:31:13.573Z,23.00
2018-05-21T09:46:37.224Z,23.24
2018-05-21T09:49:04.757Z,23.33
2018-05-21T09:51:32.231Z,23.45
2018-05-21T09:53:59.731Z,23.32
2018-05-21T09:56:27.203Z,23.36
2018-05-21T09:58:54.675Z,23.39
2018-05-21T10:01:22.165Z,23.49
2018-05-21T10:03:49.679Z,23.65
2018-05-21T10:06:17.144Z,23.69
2018-05-21T10:08:44.631Z,23.71
2018-05-21T10:11:12.117Z,23.82
2018-05-21T10:13:39.569Z,23.85
2018-05-21T10:16:07.078Z,23.84
2018-05-21T10:18:34.549Z,24.12
2018-05-21T10:21:02.060Z,24.16
2018-05-21T10:23:29.561Z,24.20
2018-05-21T10:25:57.119Z,24.33
2018-05-21T10:28:24.531Z,24.49
2018-05-21T10:30:52.008Z,24.72
2018-05-21T10:33:19.476Z,24.52
2018-05-21T10:35:47.664Z,24.54
2018-05-21T10:38:15.152Z,24.67
2018-05-21T10:40:42.689Z,24.62
2018-05-21T10:43:11.191Z,24.80
2018-05-21T10:45:38.647Z,24.95
2018-05-21T10:48:06.172Z,24.80
2018-05-21T10:50:33.642Z,24.91
2018-05-21T10:53:01.119Z,24.99
2018-05-21T10:55:28.678Z,25.17
2018-05-21T10:57:56.154Z,25.26
2018-05-21T11:00:23.727Z,25.53
2018-05-21T11:02:51.271Z,25.63
2018-05-21T11:05:18.799Z,25.78
2018-05-21T11:07:46.274Z,25.80
2018-05-21T11:10:13.831Z,26.00
2018-05-21T11:12:41.302Z,26.23
2018-05-21T11:15:08.878Z,26.32
2018-05-21T11:17:41.049Z,26.46
2018-05-21T11:20:08.518Z,26.64
2018-05-21T11:22:36.067Z,26.96
2018-05-21T11:25:03.575Z,27.14
2018-05-21T11:27:31.231Z,27.27
2018-05-21T11:29:58.813Z,27.44
2018-05-21T11:32:28.138Z,27.59
2018-05-21T11:34:55.600Z,27.92
2018-05-21T11:37:23.060Z,28.15
2018-05-21T11:39:50.610Z,28.39
2018-05-21T11:42:18.095Z,28.57
2018-05-21T11:44:45.570Z,28.64
2018-05-21T11:47:13.066Z,28.66
2018-05-21T11:49:41.453Z,28.98
2018-05-21T11:52:09.018Z,29.16
2018-05-21T11:54:36.514Z,29.18
2018-05-21T11:57:04.002Z,28.89
2018-05-21T11:59:31.626Z,28.56
2018-05-21T12:02:01.362Z,28.70
2018-05-21T12:04:28.883Z,28.96
2018-05-21T12:06:56.339Z,29.10
2018-05-21T12:09:23.852Z,28.97
2018-05-21T12:11:51.467Z,29.07
2018-05-21T12:14:18.942Z,29.15
2018-05-21T12:16:46.523Z,29.54
2018-05-21T12:19:14.016Z,29.94
2018-05-21T12:21:41.494Z,30.43
2018-05-21T12:24:09.088Z,30.68
2018-05-21T12:26:36.773Z,30.70
2018-05-21T12:29:04.247Z,30.78
2018-05-21T12:31:31.815Z,31.33
2018-05-21T12:33:59.333Z,31.62
2018-05-21T12:36:26.933Z,31.89
2018-05-21T12:38:54.464Z,31.72
2018-05-21T12:41:30.229Z,32.23
2018-05-21T12:43:57.769Z,32.05
2018-05-21T12:46:25.345Z,31.85
2018-05-21T12:48:52.887Z,31.47
2018-05-21T12:51:20.384Z,31.48
2018-05-21T12:53:48.496Z,31.15
2018-05-21T12:56:16.020Z,31.41
2018-05-21T12:58:47.300Z,31.14
2018-05-21T13:01:14.756Z,30.61
2018-05-21T13:03:42.814Z,30.01
2018-05-21T13:06:10.425Z,29.95
2018-05-21T13:08:37.990Z,29.90
2018-05-21T13:11:05.611Z,29.16
2018-05-21T13:13:33.117Z,29.17
2018-05-21T13:16:02.256Z,28.97
2018-05-21T13:18:29.773Z,28.85
2018-05-21T13:20:57.247Z,29.14
2018-05-21T13:23:24.739Z,29.26
2018-05-21T13:25:52.205Z,29.32
2018-05-21T13:28:19.724Z,29.13
2018-05-21T13:30:47.234Z,28.67
2018-05-21T13:33:14.701Z,28.55
2018-05-21T13:35:42.690Z,28.59
2018-05-21T13:38:10.464Z,28.63
2018-05-21T13:40:41.753Z,28.46
2018-05-21T13:43:09.333Z,28.51
2018-05-21T13:45:36.774Z,28.59
2018-05-21T13:48:04.239Z,28.43
2018-05-21T13:50:31.716Z,28.36
2018-05-21T13:52:59.193Z,28.48
2018-05-21T13:55:26.675Z,28.74
2018-05-21T13:57:54.208Z,29.31
2018-05-21T14:00:21.671Z,29.90
2018-05-21T14:02:49.378Z,30.06
2018-05-21T14:05:16.907Z,29.86
2018-05-21T14:07:44.412Z,29.74
2018-05-21T14:10:11.899Z,29.37
2018-05-21T14:12:39.417Z,28.90
2018-05-21T14:15:06.891Z,28.47
2018-05-21T14:17:34.344Z,28.32
2018-05-21T14:20:01.832Z,27.97
2018-05-21T14:22:29.331Z,27.73
2018-05-21T14:24:56.829Z,27.35
2018-05-21T14:27:24.333Z,27.36
2018-05-21T14:29:51.909Z,27.36
2018-05-21T14:32:19.314Z,27.07
2018-05-21T14:34:46.788Z,27.00
2018-05-21T14:37:14.280Z,26.94
2018-05-21T14:39:41.828Z,26.80
2018-05-21T14:42:09.309Z,26.62
2018-05-21T14:44:36.816Z,26.53
2018-05-21T14:47:04.276Z,26.54
2018-05-21T14:49:31.743Z,26.47
2018-05-21T14:51:59.227Z,26.38
2018-05-21T14:54:26.702Z,26.41
2018-05-21T14:56:54.297Z,26.40
2018-05-21T14:59:21.841Z,26.46
2018-05-21T15:01:49.390Z,26.44
2018-05-21T15:04:16.915Z,26.43
2018-05-21T15:06:44.401Z,26.38
2018-05-21T15:09:11.901Z,26.31
2018-05-21T15:11:39.384Z,26.15
2018-05-21T15:14:06.879Z,26.06
2018-05-21T15:16:34.359Z,25.90
2018-05-21T15:19:01.923Z,25.78
2018-05-21T15:21:29.443Z,25.74
2018-05-21T15:23:56.915Z,25.72
2018-05-21T15:26:24.428Z,25.63
2018-05-21T15:28:51.945Z,25.49
2018-05-21T15:31:19.437Z,25.34
2018-05-21T15:33:46.919Z,25.31
2018-05-21T15:36:14.603Z,25.15
2018-05-21T15:38:42.023Z,24.97
2018-05-21T15:41:09.505Z,24.63
2018-05-21T15:43:36.984Z,24.43
2018-05-21T15:46:04.472Z,24.22
2018-05-21T15:48:31.974Z,23.97
2018-05-21T15:50:59.443Z,23.71
2018-05-21T15:53:26.934Z,23.78
2018-05-21T15:55:54.449Z,24.02
2018-05-21T15:58:21.920Z,24.08
2018-05-21T16:00:49.405Z,24.11
2018-05-21T16:03:16.887Z,24.13
2018-05-21T16:05:44.352Z,24.20
2018-05-21T16:08:11.824Z,24.27
2018-05-21T16:10:39.336Z,24.32
2018-05-21T16:13:06.796Z,24.39
2018-05-21T16:15:34.288Z,24.47
2018-05-21T16:18:01.749Z,24.50
2018-05-21T16:20:29.263Z,24.46
2018-05-21T16:22:56.838Z,24.49
2018-05-21T16:25:24.322Z,24.46
2018-05-21T16:27:51.824Z,24.36
2018-05-21T16:30:19.403Z,24.39
2018-05-21T16:32:46.896Z,24.44
2018-05-21T16:35:14.395Z,24.42
2018-05-21T16:37:41.916Z,24.45
2018-05-21T16:40:09.407Z,24.43
2018-05-21T16:42:36.890Z,24.40
2018-05-21T16:45:04.435Z,24.41
2018-05-21T16:47:31.920Z,24.39
2018-05-21T16:49:59.474Z,24.34
2018-05-21T16:52:26.994Z,24.31
2018-05-21T16:54:54.475Z,24.30
2018-05-21T16:57:21.962Z,24.26
2018-05-21T16:59:49.451Z,24.22
2018-05-21T17:02:17.275Z,24.21
2018-05-21T17:04:44.750Z,24.29
2018-05-21T17:07:12.279Z,24.24
2018-05-21T17:09:39.738Z,24.15
2018-05-21T17:12:07.252Z,24.06
2018-05-21T17:14:34.767Z,23.97
2018-05-21T17:17:02.300Z,23.94
2018-05-21T17:19:29.791Z,23.99
2018-05-21T17:21:57.282Z,24.02
2018-05-21T17:24:24.761Z,24.05
2018-05-21T17:26:52.246Z,24.35
2018-05-21T17:29:19.787Z,25.20
2018-05-21T17:31:47.258Z,25.68
2018-05-21T17:34:14.751Z,25.43
2018-05-21T17:36:42.234Z,25.05
2018-05-21T17:39:09.718Z,24.74
2018-05-21T17:41:37.216Z,24.59
2018-05-21T17:44:04.750Z,24.75
2018-05-21T17:46:32.266Z,24.63
2018-05-21T17:48:59.750Z,24.46
2018-05-21T17:51:27.251Z,24.34
2018-05-21T17:53:54.764Z,24.19
2018-05-21T17:56:22.276Z,24.02
2018-05-21T17:58:49.810Z,23.93
2018-05-21T18:01:17.629Z,23.85
2018-05-21T18:03:45.350Z,23.71
2018-05-21T18:06:12.810Z,23.57
2018-05-21T18:08:40.326Z,23.46
2018-05-21T18:11:07.881Z,23.27
2018-05-21T18:13:35.371Z,23.10
2018-05-21T18:16:02.840Z,22.82
2018-05-21T18:18:30.402Z,22.53
2018-05-21T18:20:57.882Z,22.22
2018-05-21T18:23:25.376Z,22.03
2018-05-21T18:25:52.861Z,21.86
2018-05-21T18:28:20.442Z,21.63
2018-05-21T18:30:47.953Z,21.35
2018-05-21T18:33:15.690Z,21.14
2018-05-21T18:35:43.387Z,20.92
2018-05-21T18:38:10.868Z,20.71
2018-05-21T18:40:38.437Z,20.50
2018-05-21T18:43:05.892Z,20.35
2018-05-21T18:45:33.427Z,20.20
2018-05-21T18:48:00.896Z,20.07
2018-05-21T18:50:28.397Z,19.91
2018-05-21T18:52:56.126Z,19.77
2018-05-21T18:55:23.666Z,19.64
2018-05-21T18:57:51.146Z,19.50
2018-05-21T19:00:18.621Z,19.37
2018-05-21T19:02:46.099Z,19.24
2018-05-21T19:05:13.634Z,19.13
2018-05-21T19:07:41.129Z,19.05
2018-05-21T19:10:08.653Z,18.98
2018-05-21T19:12:36.169Z,18.93
2018-05-21T19:15:04.563Z,18.89
2018-05-21T19:17:32.140Z,18.83
2018-05-21T19:19:59.641Z,18.77
2018-05-21T19:22:27.116Z,18.72
2018-05-21T19:24:54.660Z,18.65
2018-05-21T19:27:22.232Z,18.60
2018-05-21T19:29:49.747Z,18.53
2018-05-21T19:32:17.646Z,18.46
2018-05-21T19:34:45.226Z,18.40
2018-05-21T19:37:12.794Z,18.33
2018-05-21T19:39:40.286Z,18.27
2018-05-21T19:42:07.839Z,18.20
2018-05-21T19:44:35.309Z,18.12
2018-05-21T19:47:03.003Z,18.08
2018-05-21T19:49:30.539Z,18.08
2018-05-21T19:51:58.006Z,18.05
2018-05-21T19:54:25.531Z,18.00
2018-05-21T19:56:53.026Z,17.96
2018-05-21T19:59:21.299Z,17.90
2018-05-21T20:01:48.820Z,17.82
2018-05-21T20:04:16.340Z,17.76
2018-05-21T20:06:43.834Z,17.68
2018-05-21T20:09:11.325Z,17.64
2018-05-21T20:11:40.080Z,17.61
2018-05-21T20:14:07.708Z,17.52
2018-05-21T20:16:35.269Z,17.46
2018-05-21T20:19:02.773Z,17.38
2018-05-21T20:23:56.763Z,17.48
2018-05-21T20:26:24.338Z,17.45
2018-05-21T20:28:52.018Z,17.42
2018-05-21T20:31:20.607Z,17.39
2018-05-21T20:36:39.020Z,17.35
2018-05-21T20:39:06.964Z,17.34
2018-05-21T20:41:34.898Z,17.34
2018-05-21T20:44:02.463Z,17.37
2018-05-21T20:46:29.998Z,17.37
2018-05-21T20:48:57.542Z,17.37
2018-05-21T20:51:25.137Z,17.31
2018-05-21T20:53:53.432Z,17.31
2018-05-21T20:56:21.370Z,17.28
2018-05-21T21:01:29.451Z,17.17
2018-05-21T21:03:58.692Z,17.10
2018-05-21T21:06:26.185Z,17.08
2018-05-21T21:08:53.693Z,17.06
2018-05-21T21:11:21.231Z,17.06
2018-05-21T21:13:48.723Z,17.12
2018-05-21T21:16:16.411Z,17.12
2018-05-21T21:18:44.002Z,17.06
2018-05-21T21:21:11.776Z,17.14
2018-05-21T21:23:39.936Z,17.12
2018-05-21T21:26:07.735Z,17.08
2018-05-21T21:28:35.299Z,17.02
2018-05-21T21:31:02.926Z,16.91
2018-05-21T21:33:32.436Z,16.79
2018-05-21T21:36:01.157Z,16.79
2018-05-21T21:51:33.976Z,16.85
2018-05-21T21:54:01.617Z,16.76
2018-05-21T21:56:30.495Z,16.63
2018-05-21T21:59:00.033Z,16.51
2018-05-21T22:01:28.628Z,16.42
2018-05-21T22:03:56.269Z,16.35
2018-05-21T22:06:28.714Z,16.34
2018-05-21T22:08:59.074Z,16.29
2018-05-21T22:11:27.317Z,16.30
2018-05-21T22:13:56.708Z,16.32
2018-05-21T22:16:24.414Z,16.35
2018-05-21T22:18:55.065Z,16.35
2018-05-21T22:21:23.533Z,16.35
2018-05-21T22:23:52.542Z,16.36
2018-05-21T22:26:20.207Z,16.35
2018-05-21T22:28:49.235Z,16.32
2018-05-21T22:31:16.943Z,16.32
2018-05-21T22:33:46.549Z,16.33
2018-05-21T22:36:14.117Z,16.33
2018-05-21T22:38:41.611Z,16.34
2018-05-21T22:41:10.249Z,16.37
2018-05-21T22:43:41.286Z,16.36
2018-05-21T22:46:09.428Z,16.38
2018-05-21T22:48:37.035Z,16.38
2018-05-21T22:51:11.734Z,16.39
2018-05-21T22:53:39.246Z,16.44
2018-05-21T22:56:07.272Z,16.46
2018-05-21T22:58:38.429Z,16.48
2018-05-21T23:01:05.928Z,16.53
2018-05-21T23:03:33.411Z,16.58
2018-05-21T23:06:03.166Z,16.66
2018-05-21T23:08:30.696Z,16.89
2018-05-21T23:11:03.182Z,16.92
2018-05-21T23:13:32.317Z,16.85
2018-05-21T23:16:03.361Z,16.75
2018-05-21T23:18:30.953Z,16.66
2018-05-21T23:20:58.519Z,16.63
2018-05-21T23:23:26.011Z,16.62
2018-05-21T23:25:53.674Z,16.59
2018-05-21T23:28:21.213Z,16.57
2018-05-21T23:30:48.682Z,16.58
2018-05-21T23:33:16.262Z,16.59
2018-05-21T23:35:43.723Z,16.58
2018-05-21T23:38:11.215Z,16.56
2018-05-21T23:40:38.715Z,16.53
2018-05-21T23:43:06.227Z,16.52
2018-05-21T23:45:34.277Z,16.53
2018-05-21T23:48:01.811Z,16.52
2018-05-21T23:50:30.040Z,16.46
2018-05-21T23:52:57.538Z,16.42
2018-05-21T23:55:25.011Z,16.37
2018-05-21T23:57:52.504Z,16.36
